Time;durP1;ratioP1;P1;durP2;ratioP2;P2;SDS_P1;SDS_P2;PMS_P1;PMS_P2;Temp;Humidity;BMP_temperature;BMP_pressure;BME280_temperature;BME280_humidity;BME280_pressure;Samples;Min_cycle;Max_cycle;Signal;HPM_P1;HPM_P2
2023/08/20 00:00:14;;;;;;;5.68;3.22;;;;;;;;;;5838431;28;20394;-74
2023/08/20 00:03:13;;;;;;;6.90;3.25;;;;;;;;;;5850410;28;20049;-74
2023/08/20 00:06:04;;;;;;;7.18;4.15;;;;;;;;;;5821126;28;20076;-75
2023/08/20 00:09:01;;;;;;;2.97;2.45;;;;;;;;;;5838269;28;20488;-75
2023/08/20 00:11:52;;;;;;;6.28;3.80;;;;;;;;;;5838472;28;20046;-74
2023/08/20 00:15:04;;;;;;;5.97;3.58;;;;;;;;;;5838216;28;20449;-75
2023/08/20 00:17:56;;;;;;;3.55;3.03;;;;;;;;;;5837924;28;20046;-74
2023/08/20 00:20:54;;;;;;;5.03;3.08;;;;;;;;;;5838240;28;20141;-74
2023/08/20 00:23:45;;;;;;;4.22;2.92;;;;;;;;;;5838506;28;20050;-74
2023/08/20 00:26:43;;;;;;;23.30;3.40;;;;;;;;;;5821384;28;20049;-73
2023/08/20 00:29:34;;;;;;;4.18;3.28;;;;;;;;;;5838139;28;20532;-74
2023/08/20 00:32:31;;;;;;;4.88;2.60;;;;;;;;;;5837819;28;20528;-74
2023/08/20 00:35:22;;;;;;;3.85;2.60;;;;;;;;;;5836737;28;20097;-74
2023/08/20 00:38:19;;;;;;;4.03;3.33;;;;;;;;;;5837251;28;20245;-74
2023/08/20 00:41:10;;;;;;;5.10;3.33;;;;;;;;;;5837336;28;20050;-74
2023/08/20 00:44:07;;;;;;;3.15;2.60;;;;;;;;;;5838339;28;20049;-74
2023/08/20 00:47:00;;;;;;;5.55;3.22;;;;;;;;;;5837498;28;20046;-74
2023/08/20 00:49:58;;;;;;;5.22;4.00;;;;;;;;;;5821234;28;20053;-74
2023/08/20 00:52:48;;;;;;;8.05;4.90;;;;;;;;;;5803724;28;20046;-75
2023/08/20 00:55:45;;;;;;;3.35;2.65;;;;;;;;;;5837362;28;20401;-74
2023/08/20 00:58:36;;;;;;;4.00;2.88;;;;;;;;;;5837747;28;20409;-74
2023/08/20 01:01:33;;;;;;;4.18;3.17;;;;;;;;;;5837110;28;20050;-75
2023/08/20 01:04:24;;;;;;;3.10;2.58;;;;;;;;;;5837419;28;20048;-74
2023/08/20 01:07:34;;;;;;;3.88;3.22;;;;;;;;;;5837183;28;20050;-74
2023/08/20 01:10:30;;;;;;;5.25;3.45;;;;;;;;;;5820210;28;20046;-75
2023/08/20 01:13:27;;;;;;;4.03;2.85;;;;;;;;;;5837012;28;20056;-75
2023/08/20 01:16:18;;;;;;;2.63;2.15;;;;;;;;;;5819428;28;20080;-74
2023/08/20 01:19:21;;;;;;;5.43;3.20;;;;;;;;;;5836883;28;20050;-74
2023/08/20 01:22:34;;;;;;;3.92;2.78;;;;;;;;;;5836946;28;20149;-75
2023/08/20 01:26:20;;;;;;;3.80;2.88;;;;;;;;;;5836777;28;20054;-74
2023/08/20 01:29:12;;;;;;;6.85;3.58;;;;;;;;;;5836854;28;20046;-73
2023/08/20 01:32:11;;;;;;;5.40;3.25;;;;;;;;;;5836858;28;20042;-74
2023/08/20 01:35:03;;;;;;;5.45;2.88;;;;;;;;;;5803210;28;20152;-74
2023/08/20 01:38:00;;;;;;;5.05;3.45;;;;;;;;;;5836199;28;20139;-73
2023/08/20 01:40:51;;;;;;;4.05;2.83;;;;;;;;;;5836943;28;20050;-74
2023/08/20 01:43:48;;;;;;;5.25;3.03;;;;;;;;;;5835836;28;20053;-74
2023/08/20 01:46:39;;;;;;;4.47;2.72;;;;;;;;;;5835529;28;20690;-74
2023/08/20 01:49:36;;;;;;;3.08;2.63;;;;;;;;;;5836369;28;20424;-73
2023/08/20 01:52:33;;;;;;;4.40;2.85;;;;;;;;;;5835910;28;20064;-74
2023/08/20 01:55:24;;;;;;;4.82;3.03;;;;;;;;;;5836281;28;20046;-73
2023/08/20 01:58:23;;;;;;;3.50;2.58;;;;;;;;;;5835962;28;20046;-74
2023/08/20 02:01:13;;;;;;;5.00;3.45;;;;;;;;;;5836393;28;20129;-74
2023/08/20 02:04:10;;;;;;;4.55;3.80;;;;;;;;;;5836013;28;20057;-73
2023/08/20 02:07:01;;;;;;;6.13;2.83;;;;;;;;;;5836034;28;20046;-74
2023/08/20 02:09:58;;;;;;;5.70;3.85;;;;;;;;;;5836389;28;20046;-74
2023/08/20 02:12:49;;;;;;;5.90;3.28;;;;;;;;;;5818481;28;20046;-74
2023/08/20 02:15:46;;;;;;;3.78;2.78;;;;;;;;;;5835525;28;20053;-74
2023/08/20 02:18:37;;;;;;;6.20;3.88;;;;;;;;;;5835995;28;20046;-73
2023/08/20 02:21:34;;;;;;;3.97;2.95;;;;;;;;;;5836015;28;20540;-73
2023/08/20 02:24:25;;;;;;;3.88;2.90;;;;;;;;;;5818337;28;20397;-73
2023/08/20 02:27:22;;;;;;;3.97;2.90;;;;;;;;;;5836074;28;20049;-75
2023/08/20 02:30:13;;;;;;;3.13;2.80;;;;;;;;;;5835656;28;20081;-73
2023/08/20 02:33:11;;;;;;;4.38;3.25;;;;;;;;;;5835746;28;20052;-73
2023/08/20 02:36:03;;;;;;;4.68;3.30;;;;;;;;;;5835368;28;20140;-74
2023/08/20 02:39:00;;;;;;;4.53;3.85;;;;;;;;;;5834935;28;20049;-73
2023/08/20 02:41:51;;;;;;;7.15;4.07;;;;;;;;;;5802052;28;20133;-74
2023/08/20 02:44:49;;;;;;;4.50;3.17;;;;;;;;;;5835433;28;20129;-74
2023/08/20 02:47:39;;;;;;;3.17;2.60;;;;;;;;;;5835669;28;20042;-74
2023/08/20 02:50:36;;;;;;;5.15;2.83;;;;;;;;;;5835601;28;20378;-73
2023/08/20 02:53:27;;;;;;;5.85;4.35;;;;;;;;;;5817854;28;20038;-75
2023/08/20 02:56:24;;;;;;;6.63;2.70;;;;;;;;;;5835906;28;20038;-75
2023/08/20 02:59:15;;;;;;;4.35;2.85;;;;;;;;;;5838575;28;20068;-74
2023/08/20 03:02:12;;;;;;;6.80;4.65;;;;;;;;;;5840328;28;20083;-74
2023/08/20 03:05:05;;;;;;;3.35;2.80;;;;;;;;;;5839741;28;20440;-74
2023/08/20 03:08:05;;;;;;;13.52;3.90;;;;;;;;;;5840123;28;20484;-73
2023/08/20 03:10:56;;;;;;;5.05;2.78;;;;;;;;;;5839899;28;20061;-74
2023/08/20 03:13:53;;;;;;;4.47;2.92;;;;;;;;;;5840057;28;20050;-74
2023/08/20 03:16:44;;;;;;;13.32;3.05;;;;;;;;;;5839796;28;20056;-74
2023/08/20 03:19:58;;;;;;;7.88;2.85;;;;;;;;;;5822899;28;20366;-74
2023/08/20 03:22:48;;;;;;;5.07;2.72;;;;;;;;;;5822276;28;20651;-74
2023/08/20 03:25:46;;;;;;;2.77;2.27;;;;;;;;;;5839233;28;20168;-73
2023/08/20 03:28:37;;;;;;;6.25;2.53;;;;;;;;;;5839722;28;20338;-73
2023/08/20 03:31:34;;;;;;;10.13;3.88;;;;;;;;;;5839550;28;20050;-74
2023/08/20 03:34:25;;;;;;;4.10;2.85;;;;;;;;;;5839423;28;20137;-74
2023/08/20 03:37:22;;;;;;;2.75;2.42;;;;;;;;;;5839146;28;20050;-74
2023/08/20 03:40:13;;;;;;;4.03;2.95;;;;;;;;;;5839236;28;20149;-74
2023/08/20 03:43:10;;;;;;;3.22;2.92;;;;;;;;;;5839233;28;20457;-74
2023/08/20 03:46:02;;;;;;;3.90;2.83;;;;;;;;;;5821492;28;20045;-73
2023/08/20 03:48:59;;;;;;;4.82;2.50;;;;;;;;;;5807298;28;20046;-75
2023/08/20 03:51:50;;;;;;;8.20;3.03;;;;;;;;;;5821681;28;20052;-73
2023/08/20 03:54:47;;;;;;;4.68;2.65;;;;;;;;;;5838878;28;20481;-73
2023/08/20 03:57:45;;;;;;;3.40;2.60;;;;;;;;;;5838704;28;20046;-74
2023/08/20 04:00:36;;;;;;;3.92;2.83;;;;;;;;;;5838626;28;20405;-74
2023/08/20 04:03:33;;;;;;;3.77;2.70;;;;;;;;;;5838805;28;20754;-74
2023/08/20 04:06:24;;;;;;;5.88;2.90;;;;;;;;;;5838428;28;20296;-73
2023/08/20 04:09:21;;;;;;;2.92;2.67;;;;;;;;;;5837407;28;20068;-73
2023/08/20 04:12:12;;;;;;;3.17;2.47;;;;;;;;;;5838382;28;20050;-74
2023/08/20 04:15:09;;;;;;;4.78;3.70;;;;;;;;;;5838640;28;20642;-74
2023/08/20 04:18:00;;;;;;;5.53;3.65;;;;;;;;;;5821205;28;20046;-74
2023/08/20 04:20:57;;;;;;;5.32;3.83;;;;;;;;;;5838554;28;20046;-74
2023/08/20 04:23:48;;;;;;;5.47;2.78;;;;;;;;;;5820869;28;20052;-73
2023/08/20 04:26:45;;;;;;;4.82;3.45;;;;;;;;;;5837936;28;20053;-74
2023/08/20 04:29:36;;;;;;;5.43;3.35;;;;;;;;;;5838441;28;20485;-73
2023/08/20 04:32:33;;;;;;;5.32;2.65;;;;;;;;;;5838275;28;20152;-75
2023/08/20 04:35:24;;;;;;;6.53;3.88;;;;;;;;;;5837819;28;20053;-75
2023/08/20 04:38:22;;;;;;;4.00;3.58;;;;;;;;;;5837386;28;20052;-73
2023/08/20 04:41:12;;;;;;;3.08;2.45;;;;;;;;;;5837792;28;20053;-74
2023/08/20 04:44:10;;;;;;;4.43;2.87;;;;;;;;;;5838001;28;20478;-74
2023/08/20 04:47:01;;;;;;;3.13;2.83;;;;;;;;;;5837643;28;20300;-73
2023/08/20 04:49:58;;;;;;;6.43;3.17;;;;;;;;;;5837764;28;20045;-74
2023/08/20 04:52:49;;;;;;;5.60;3.05;;;;;;;;;;5837383;28;20045;-74
2023/08/20 04:55:46;;;;;;;4.43;3.58;;;;;;;;;;5837331;28;20054;-73
2023/08/20 04:58:37;;;;;;;5.07;3.47;;;;;;;;;;5836926;28;20056;-74
2023/08/20 05:01:34;;;;;;;4.70;3.63;;;;;;;;;;5837120;28;20049;-73
2023/08/20 05:04:25;;;;;;;5.93;3.78;;;;;;;;;;5837436;28;20129;-74
2023/08/20 05:07:22;;;;;;;3.47;2.83;;;;;;;;;;5836693;28;20100;-73
2023/08/20 05:10:20;;;;;;;5.35;3.17;;;;;;;;;;5837323;28;20042;-74
2023/08/20 05:13:20;;;;;;;6.70;4.65;;;;;;;;;;5820567;28;20385;-74
2023/08/20 05:16:10;;;;;;;5.70;3.35;;;;;;;;;;5836694;28;20085;-73
2023/08/20 05:19:07;;;;;;;4.38;3.25;;;;;;;;;;5836980;28;20181;-74
2023/08/20 05:21:59;;;;;;;4.35;3.95;;;;;;;;;;5835044;28;20081;-74
2023/08/20 05:25:02;;;;;;;5.22;3.53;;;;;;;;;;5837218;28;20392;-73
2023/08/20 05:27:53;;;;;;;5.65;4.03;;;;;;;;;;5836414;28;20058;-74
2023/08/20 05:30:56;;;;;;;5.60;4.47;;;;;;;;;;5836370;28;20470;-73
2023/08/20 05:33:47;;;;;;;8.38;4.38;;;;;;;;;;5818987;28;20046;-74
2023/08/20 05:36:44;;;;;;;17.52;5.90;;;;;;;;;;5836619;28;20046;-74
2023/08/20 05:39:43;;;;;;;6.85;5.50;;;;;;;;;;5836566;28;20042;-74
2023/08/20 05:42:40;;;;;;;11.70;5.75;;;;;;;;;;5836656;28;20037;-75
2023/08/20 05:45:31;;;;;;;10.68;6.15;;;;;;;;;;5836217;28;20054;-75
2023/08/20 05:48:29;;;;;;;9.98;5.80;;;;;;;;;;5836427;28;20046;-75
2023/08/20 05:51:19;;;;;;;11.25;6.47;;;;;;;;;;5836417;28;20079;-75
2023/08/20 05:54:16;;;;;;;9.02;5.47;;;;;;;;;;5835965;28;20052;-74
2023/08/20 05:57:07;;;;;;;8.27;5.50;;;;;;;;;;5836140;28;20061;-75
2023/08/20 06:00:05;;;;;;;17.67;5.95;;;;;;;;;;5836044;28;20052;-73
2023/08/20 06:02:56;;;;;;;6.32;4.35;;;;;;;;;;5818647;28;20042;-74
2023/08/20 06:05:53;;;;;;;9.47;4.40;;;;;;;;;;5819850;28;20052;-75
2023/08/20 06:08:44;;;;;;;13.30;4.63;;;;;;;;;;5836080;28;20136;-75
2023/08/20 06:11:57;;;;;;;6.35;4.57;;;;;;;;;;5835831;28;20054;-75
2023/08/20 06:14:48;;;;;;;7.05;4.13;;;;;;;;;;5836544;28;20240;-75
2023/08/20 06:17:45;;;;;;;6.80;4.63;;;;;;;;;;5836290;28;20046;-74
2023/08/20 06:20:36;;;;;;;6.68;3.47;;;;;;;;;;5835411;28;20049;-75
2023/08/20 06:23:33;;;;;;;21.67;5.20;;;;;;;;;;5836147;28;20056;-75
2023/08/20 06:26:33;;;;;;;6.57;4.32;;;;;;;;;;5835816;28;20435;-75
2023/08/20 06:29:31;;;;;;;8.25;3.67;;;;;;;;;;5836125;28;20046;-74
2023/08/20 06:32:23;;;;;;;8.50;5.20;;;;;;;;;;5835938;28;20041;-75
2023/08/20 06:35:21;;;;;;;7.50;4.82;;;;;;;;;;5840822;28;20405;-74
2023/08/20 06:38:12;;;;;;;8.68;4.47;;;;;;;;;;5840537;28;20064;-74
2023/08/20 06:41:09;;;;;;;7.32;4.82;;;;;;;;;;5840400;28;20349;-75
2023/08/20 06:44:00;;;;;;;9.13;4.68;;;;;;;;;;5840744;28;20472;-75
2023/08/20 06:46:57;;;;;;;8.40;4.25;;;;;;;;;;5840005;28;20055;-75
2023/08/20 06:49:50;;;;;;;7.72;4.43;;;;;;;;;;5840917;28;20673;-74
2023/08/20 06:52:47;;;;;;;8.98;4.30;;;;;;;;;;5839898;28;20042;-74
2023/08/20 06:55:38;;;;;;;7.93;3.85;;;;;;;;;;5840181;28;20775;-75
2023/08/20 06:58:36;;;;;;;7.75;4.50;;;;;;;;;;5839852;28;20038;-75
2023/08/20 07:01:26;;;;;;;7.32;4.05;;;;;;;;;;5839650;28;20050;-75
2023/08/20 07:04:23;;;;;;;4.75;3.17;;;;;;;;;;5840179;28;20046;-75
2023/08/20 07:07:14;;;;;;;6.03;3.70;;;;;;;;;;5839776;28;20061;-75
2023/08/20 07:10:12;;;;;;;4.47;3.25;;;;;;;;;;5839873;28;20454;-75
2023/08/20 07:13:02;;;;;;;6.57;3.55;;;;;;;;;;5839394;28;20046;-74
2023/08/20 07:16:00;;;;;;;7.88;3.05;;;;;;;;;;5839804;28;20046;-76
2023/08/20 07:18:52;;;;;;;8.57;3.10;;;;;;;;;;5839531;28;20049;-75
2023/08/20 07:21:50;;;;;;;5.57;3.08;;;;;;;;;;5823019;28;20050;-76
2023/08/20 07:24:41;;;;;;;3.97;2.38;;;;;;;;;;5839284;28;20053;-75
2023/08/20 07:27:38;;;;;;;4.93;3.00;;;;;;;;;;5838780;28;20200;-76
2023/08/20 07:30:29;;;;;;;10.88;3.08;;;;;;;;;;5839198;28;20136;-75
2023/08/20 07:33:26;;;;;;;4.47;2.38;;;;;;;;;;5839307;28;20515;-75
2023/08/20 07:36:17;;;;;;;6.30;2.75;;;;;;;;;;5839530;28;20052;-75
2023/08/20 07:39:15;;;;;;;10.15;3.50;;;;;;;;;;5838876;28;20052;-75
2023/08/20 07:42:08;;;;;;;8.02;2.50;;;;;;;;;;5838922;28;20046;-75
2023/08/20 07:45:07;;;;;;;5.63;2.55;;;;;;;;;;5838950;28;20046;-74
2023/08/20 07:47:57;;;;;;;4.97;2.75;;;;;;;;;;5838585;28;20045;-74
2023/08/20 07:50:57;;;;;;;5.88;2.70;;;;;;;;;;5839131;28;20050;-75
2023/08/20 07:53:47;;;;;;;4.68;2.85;;;;;;;;;;5838994;28;20068;-76
2023/08/20 07:57:05;;;;;;;8.00;2.30;;;;;;;;;;5838911;28;20053;-75
2023/08/20 08:00:04;;;;;;;7.32;2.58;;;;;;;;;;5838529;28;20046;-75
2023/08/20 08:03:01;;;;;;;5.45;2.42;;;;;;;;;;5838350;28;20077;-75
2023/08/20 08:05:53;;;;;;;5.47;2.85;;;;;;;;;;5838221;28;20060;-76
2023/08/20 08:08:53;;;;;;;3.50;2.03;;;;;;;;;;5838413;28;20053;-75
2023/08/20 08:11:45;;;;;;;4.97;2.40;;;;;;;;;;5821414;28;20050;-75
2023/08/20 08:14:43;;;;;;;3.03;2.08;;;;;;;;;;5838736;28;20050;-75
2023/08/20 08:17:34;;;;;;;3.47;2.42;;;;;;;;;;5821066;28;20052;-75
2023/08/20 08:20:31;;;;;;;2.22;1.52;;;;;;;;;;5821355;28;20103;-75
2023/08/20 08:23:22;;;;;;;3.95;2.22;;;;;;;;;;5820826;28;20057;-77
2023/08/20 08:26:19;;;;;;;2.55;1.90;;;;;;;;;;5838114;28;20049;-75
2023/08/20 08:29:10;;;;;;;4.38;2.47;;;;;;;;;;5838302;28;20673;-75
2023/08/20 08:32:07;;;;;;;;;;;;;;;;;;5838557;28;20046;-75
2023/08/20 08:34:58;;;;;;;4.60;2.25;;;;;;;;;;5820575;28;19921;-75
2023/08/20 08:38:03;;;;;;;9.90;2.47;;;;;;;;;;5837418;28;20149;-74
2023/08/20 08:41:01;;;;;;;2.30;1.50;;;;;;;;;;5837470;28;20050;-75
2023/08/20 08:43:53;;;;;;;1.73;1.30;;;;;;;;;;5820609;28;20469;-76
2023/08/20 08:46:51;;;;;;;12.75;2.55;;;;;;;;;;5820978;28;20132;-77
2023/08/20 08:49:43;;;;;;;3.83;1.95;;;;;;;;;;5838113;28;20140;-75
2023/08/20 08:52:44;;;;;;;3.08;2.05;;;;;;;;;;5821309;28;20053;-77
2023/08/20 08:55:37;;;;;;;3.92;1.90;;;;;;;;;;5819875;28;20054;-75
2023/08/20 08:58:34;;;;;;;2.83;1.92;;;;;;;;;;5837026;28;20046;-75
2023/08/20 09:01:25;;;;;;;2.42;1.35;;;;;;;;;;5837740;28;20045;-75
2023/08/20 09:04:24;;;;;;;2.47;1.50;;;;;;;;;;5837908;28;20050;-75
2023/08/20 09:07:15;;;;;;;2.50;1.42;;;;;;;;;;5819779;28;20136;-76
2023/08/20 09:10:12;;;;;;;;;;;;;;;;;;5837256;28;20050;-75
2023/08/20 09:13:04;;;;;;;1.50;1.23;;;;;;;;;;5836811;28;19971;-76
2023/08/20 09:16:06;;;;;;;2.60;0.98;;;;;;;;;;5820858;28;20064;-75
2023/08/20 09:19:01;;;;;;;30.08;1.65;;;;;;;;;;5819553;28;20132;-75
2023/08/20 09:22:01;;;;;;;2.38;1.20;;;;;;;;;;5836965;28;20559;-74
2023/08/20 09:24:58;;;;;;;1.60;1.20;;;;;;;;;;5836931;28;20678;-75
2023/08/20 09:27:49;;;;;;;2.63;1.13;;;;;;;;;;5835992;28;20054;-75
2023/08/20 09:31:02;;;;;;;2.13;1.42;;;;;;;;;;5836351;28;20050;-74
2023/08/20 09:33:54;;;;;;;4.43;1.40;;;;;;;;;;5803427;28;20699;-74
2023/08/20 09:36:52;;;;;;;11.55;1.80;;;;;;;;;;5820275;28;20050;-75
2023/08/20 09:39:43;;;;;;;1.40;1.10;;;;;;;;;;5836869;28;20042;-74
2023/08/20 09:42:42;;;;;;;1.25;1.10;;;;;;;;;;5819962;28;20139;-74
2023/08/20 09:45:33;;;;;;;2.60;1.63;;;;;;;;;;5819149;28;20045;-75
2023/08/20 09:48:37;;;;;;;1.75;1.20;;;;;;;;;;5836182;28;20081;-75
2023/08/20 09:51:33;;;;;;;2.22;1.52;;;;;;;;;;5836493;28;20046;-74
2023/08/20 09:54:50;;;;;;;1.42;1.13;;;;;;;;;;5805071;28;20046;-74
2023/08/20 09:57:41;;;;;;;3.80;1.48;;;;;;;;;;5835859;28;20061;-74
2023/08/20 10:00:39;;;;;;;2.08;1.17;;;;;;;;;;5836024;28;20433;-74
2023/08/20 10:03:30;;;;;;;2.78;1.77;;;;;;;;;;5818360;28;20137;-75
2023/08/20 10:06:29;;;;;;;1.63;1.33;;;;;;;;;;5819333;28;20048;-74
2023/08/20 10:09:20;;;;;;;1.70;1.25;;;;;;;;;;5817763;28;20105;-75
2023/08/20 10:12:19;;;;;;;4.10;2.25;;;;;;;;;;5819318;28;20046;-74
2023/08/20 10:15:14;;;;;;;2.15;1.08;;;;;;;;;;5818612;28;20489;-74
2023/08/20 10:18:13;;;;;;;4.20;1.70;;;;;;;;;;5835605;28;20049;-75
2023/08/20 10:21:07;;;;;;;2.85;1.63;;;;;;;;;;5818844;28;20173;-74
2023/08/20 10:24:08;;;;;;;1.75;1.10;;;;;;;;;;5835973;28;20054;-76
2023/08/20 10:27:10;;;;;;;2.00;1.33;;;;;;;;;;5818547;28;20057;-76
2023/08/20 10:30:17;;;;;;;1.77;1.20;;;;;;;;;;5835534;28;20045;-75
2023/08/20 10:33:09;;;;;;;1.90;1.58;;;;;;;;;;5819076;28;20085;-75
2023/08/20 10:36:26;;;;;;;1.88;1.10;;;;;;;;;;5819023;28;20053;-75
2023/08/20 10:39:25;;;;;;;2.75;1.35;;;;;;;;;;5803736;28;20056;-74
2023/08/20 10:42:26;;;;;;;4.53;1.50;;;;;;;;;;5819016;28;20457;-74
2023/08/20 10:45:23;;;;;;;2.25;1.10;;;;;;;;;;5819145;28;20042;-74
2023/08/20 10:48:20;;;;;;;;;;;;;;;;;;5835782;28;20054;-76
2023/08/20 10:51:27;;;;;;;1.50;1.15;;;;;;;;;;5835209;28;20373;-76
2023/08/20 10:54:25;;;;;;;1.83;1.42;;;;;;;;;;5835541;28;20152;-74
2023/08/20 10:57:16;;;;;;;2.88;1.55;;;;;;;;;;5835437;28;20062;-73
2023/08/20 11:00:16;;;;;;;1.92;1.38;;;;;;;;;;5834923;28;20046;-74
2023/08/20 11:03:07;;;;;;;1.67;1.30;;;;;;;;;;5835074;28;20046;-74
2023/08/20 11:06:06;;;;;;;1.60;1.20;;;;;;;;;;5819163;28;20050;-75
2023/08/20 11:08:57;;;;;;;1.60;1.08;;;;;;;;;;5801324;28;20050;-75
2023/08/20 11:11:56;;;;;;;2.65;1.63;;;;;;;;;;5834996;28;20065;-75
2023/08/20 11:14:48;;;;;;;3.65;1.35;;;;;;;;;;5835818;28;20504;-74
2023/08/20 11:17:47;;;;;;;1.45;1.20;;;;;;;;;;5818918;28;20052;-74
2023/08/20 11:20:41;;;;;;;1.98;1.33;;;;;;;;;;5822194;28;20050;-73
2023/08/20 11:23:41;;;;;;;2.47;1.92;;;;;;;;;;5839498;28;20675;-75
2023/08/20 11:26:34;;;;;;;2.65;1.48;;;;;;;;;;5821992;28;20089;-74
2023/08/20 11:29:31;;;;;;;2.15;1.35;;;;;;;;;;5839248;28;20056;-74
2023/08/20 11:32:23;;;;;;;1.20;0.82;;;;;;;;;;5839295;28;20088;-75
2023/08/20 11:35:21;;;;;;;1.25;0.95;;;;;;;;;;5839248;28;20052;-74
2023/08/20 11:38:13;;;;;;;1.50;0.90;;;;;;;;;;5838986;28;20697;-73
2023/08/20 11:41:10;;;;;;;1.33;0.98;;;;;;;;;;5822686;28;20042;-74
2023/08/20 11:44:01;;;;;;;2.22;1.08;;;;;;;;;;5838791;28;20042;-73
2023/08/20 11:46:58;;;;;;;2.45;1.15;;;;;;;;;;5839040;28;20057;-74
2023/08/20 11:50:03;;;;;;;1.10;0.90;;;;;;;;;;5822022;28;20652;-75
2023/08/20 11:53:03;;;;;;;1.17;0.88;;;;;;;;;;5838460;28;20038;-75
2023/08/20 11:55:53;;;;;;;1.90;1.20;;;;;;;;;;5838426;28;20128;-74
2023/08/20 11:58:52;;;;;;;2.65;1.48;;;;;;;;;;5821959;28;20042;-74
2023/08/20 12:01:43;;;;;;;2.55;1.15;;;;;;;;;;5821016;28;20085;-73
2023/08/20 12:04:40;;;;;;;1.33;1.02;;;;;;;;;;5838782;28;20089;-75
2023/08/20 12:07:31;;;;;;;1.33;1.02;;;;;;;;;;5837910;28;20050;-75
2023/08/20 12:10:31;;;;;;;1.52;1.17;;;;;;;;;;5838419;28;20049;-75
2023/08/20 12:13:22;;;;;;;1.63;0.85;;;;;;;;;;5838486;28;20045;-74
2023/08/20 12:16:23;;;;;;;1.58;1.48;;;;;;;;;;5821619;28;20042;-75
2023/08/20 12:19:14;;;;;;;3.22;1.27;;;;;;;;;;5838446;28;20184;-73
2023/08/20 12:22:12;;;;;;;1.10;0.98;;;;;;;;;;5837832;28;20046;-73
2023/08/20 12:25:03;;;;;;;1.50;1.08;;;;;;;;;;5820501;28;20050;-74
2023/08/20 12:28:07;;;;;;;1.30;0.80;;;;;;;;;;5837733;28;20145;-74
2023/08/20 12:30:58;;;;;;;1.35;0.80;;;;;;;;;;5819789;28;20053;-74
2023/08/20 12:33:55;;;;;;;;;;;;;;;;;;5806655;28;20064;-76
2023/08/20 12:36:46;;;;;;;2.80;1.00;;;;;;;;;;5837875;28;20015;-73
2023/08/20 12:39:43;;;;;;;1.13;0.95;;;;;;;;;;5838271;28;20045;-74
2023/08/20 12:42:34;;;;;;;1.23;0.70;;;;;;;;;;5837317;28;20053;-73
2023/08/20 12:45:34;;;;;;;1.73;1.08;;;;;;;;;;5837348;28;20320;-74
2023/08/20 12:48:24;;;;;;;1.50;0.93;;;;;;;;;;5837699;28;20049;-74
2023/08/20 12:51:22;;;;;;;1.88;0.90;;;;;;;;;;5837919;28;20392;-74
2023/08/20 12:54:13;;;;;;;3.03;1.02;;;;;;;;;;5837798;28;20042;-74
2023/08/20 12:57:10;;;;;;;1.00;0.68;;;;;;;;;;5837294;28;20042;-74
2023/08/20 13:00:10;;;;;;;0.73;0.73;;;;;;;;;;5837336;28;20057;-74
2023/08/20 13:03:09;;;;;;;1.13;0.85;;;;;;;;;;5821789;28;20045;-74
2023/08/20 13:06:00;;;;;;;1.35;0.70;;;;;;;;;;5837074;28;20054;-74
2023/08/20 13:08:58;;;;;;;7.28;1.25;;;;;;;;;;5836598;28;20049;-75
2023/08/20 13:11:50;;;;;;;4.13;1.10;;;;;;;;;;5837231;28;20547;-77
2023/08/20 13:14:48;;;;;;;0.57;0.57;;;;;;;;;;5820855;28;20189;-75
2023/08/20 13:17:39;;;;;;;2.03;1.08;;;;;;;;;;5836219;28;20053;-73
2023/08/20 13:20:37;;;;;;;2.10;0.95;;;;;;;;;;5836922;28;20050;-75
2023/08/20 13:23:28;;;;;;;0.80;0.73;;;;;;;;;;5836855;28;20141;-75
2023/08/20 13:26:25;;;;;;;1.30;1.20;;;;;;;;;;5836621;28;20114;-75
2023/08/20 13:29:16;;;;;;;11.82;1.13;;;;;;;;;;5819210;28;20493;-75
2023/08/20 13:32:13;;;;;;;1.33;0.93;;;;;;;;;;5836711;28;20057;-75
2023/08/20 13:35:04;;;;;;;1.73;0.75;;;;;;;;;;5819276;28;20252;-75
2023/08/20 13:38:04;;;;;;;1.23;0.70;;;;;;;;;;5819947;28;20049;-74
2023/08/20 13:40:59;;;;;;;0.95;0.80;;;;;;;;;;5836204;28;20515;-74
2023/08/20 13:44:01;;;;;;;0.70;0.50;;;;;;;;;;5836370;28;20384;-76
2023/08/20 13:46:56;;;;;;;1.80;1.17;;;;;;;;;;5836331;28;20048;-73
2023/08/20 13:49:53;;;;;;;1.33;1.08;;;;;;;;;;5836230;28;20711;-75
2023/08/20 13:52:44;;;;;;;3.03;0.85;;;;;;;;;;5836341;28;20054;-74
2023/08/20 13:55:41;;;;;;;1.52;1.13;;;;;;;;;;5836262;28;20053;-76
2023/08/20 13:58:32;;;;;;;4.32;0.75;;;;;;;;;;5836025;28;20042;-75
2023/08/20 14:01:29;;;;;;;;;;;;;;;;;;5836319;28;20049;-75
2023/08/20 14:04:20;;;;;;;1.33;0.73;;;;;;;;;;5836224;28;19982;-74
2023/08/20 14:07:18;;;;;;;5.35;1.42;;;;;;;;;;5836024;28;20050;-73
2023/08/20 14:10:09;;;;;;;1.70;1.08;;;;;;;;;;5818785;28;20101;-75
2023/08/20 14:13:07;;;;;;;3.13;1.00;;;;;;;;;;5835878;28;20046;-73
2023/08/20 14:15:58;;;;;;;0.95;0.77;;;;;;;;;;5835802;28;20054;-74
2023/08/20 14:18:55;;;;;;;2.78;1.17;;;;;;;;;;5836134;28;20526;-75
2023/08/20 14:21:46;;;;;;;2.92;1.25;;;;;;;;;;5835761;28;20085;-75
2023/08/20 14:24:43;;;;;;;;;;;;;;;;;;5836223;28;20160;-75
2023/08/20 14:27:34;;;;;;;8.68;1.27;;;;;;;;;;5835462;28;19932;-74
2023/08/20 14:30:35;;;;;;;1.15;1.02;;;;;;;;;;5835530;28;20060;-75
2023/08/20 14:33:27;;;;;;;5.72;1.27;;;;;;;;;;5786282;28;20097;-75
2023/08/20 14:36:27;;;;;;;0.80;0.60;;;;;;;;;;5819047;28;20046;-75
2023/08/20 14:39:18;;;;;;;2.28;1.23;;;;;;;;;;5835399;28;20393;-73
2023/08/20 14:42:15;;;;;;;;;;;;;;;;;;5835813;28;20436;-74
2023/08/20 14:45:06;;;;;;;1.63;1.20;;;;;;;;;;5835199;28;19921;-76
2023/08/20 14:48:03;;;;;;;0.70;0.70;;;;;;;;;;5835098;28;20180;-73
2023/08/20 14:50:54;;;;;;;1.05;0.75;;;;;;;;;;5835286;28;20073;-74
2023/08/20 14:53:52;;;;;;;1.70;1.15;;;;;;;;;;5836539;28;20120;-73
2023/08/20 14:56:43;;;;;;;1.92;1.33;;;;;;;;;;5839795;28;20057;-73
2023/08/20 14:59:41;;;;;;;1.10;0.75;;;;;;;;;;5839766;28;20046;-74
2023/08/20 15:02:32;;;;;;;1.60;1.15;;;;;;;;;;5839312;28;20052;-73
2023/08/20 15:05:30;;;;;;;1.42;1.08;;;;;;;;;;5839760;28;20038;-74
2023/08/20 15:08:21;;;;;;;0.98;0.73;;;;;;;;;;5839600;28;20042;-75
2023/08/20 15:11:18;;;;;;;;;;;;;;;;;;5839994;28;20397;-74
2023/08/20 15:14:15;;;;;;;1.80;0.77;;;;;;;;;;5839656;28;19995;-75
2023/08/20 15:17:06;;;;;;;1.75;1.02;;;;;;;;;;5821877;28;20045;-74
2023/08/20 15:20:10;;;;;;;1.05;0.80;;;;;;;;;;5822682;28;20046;-74
2023/08/20 15:23:04;;;;;;;1.40;0.90;;;;;;;;;;5839289;28;20050;-74
2023/08/20 15:26:01;;;;;;;4.00;0.90;;;;;;;;;;5838843;28;20050;-74
2023/08/20 15:28:52;;;;;;;1.52;1.02;;;;;;;;;;5839161;28;20048;-73
2023/08/20 15:31:51;;;;;;;0.95;0.70;;;;;;;;;;5839329;28;20060;-74
2023/08/20 15:34:42;;;;;;;1.85;1.02;;;;;;;;;;5838352;28;20050;-73
2023/08/20 15:37:39;;;;;;;3.65;1.90;;;;;;;;;;5838883;28;20045;-74
2023/08/20 15:40:30;;;;;;;1.83;1.60;;;;;;;;;;5838258;28;20062;-74
2023/08/20 15:43:28;;;;;;;1.35;0.88;;;;;;;;;;5822289;28;20185;-75
2023/08/20 15:46:19;;;;;;;2.10;1.23;;;;;;;;;;5838480;28;20112;-74
2023/08/20 15:49:17;;;;;;;1.00;0.73;;;;;;;;;;5838821;28;20073;-74
2023/08/20 15:52:08;;;;;;;2.08;1.02;;;;;;;;;;5820953;28;20057;-74
2023/08/20 15:55:05;;;;;;;3.72;1.40;;;;;;;;;;5839030;28;20068;-73
2023/08/20 15:57:56;;;;;;;1.88;1.20;;;;;;;;;;5838279;28;20046;-73
2023/08/20 16:00:54;;;;;;;;;;;;;;;;;;5838853;28;20045;-75
2023/08/20 16:03:44;;;;;;;1.48;1.13;;;;;;;;;;5838072;28;19925;-73
2023/08/20 16:06:48;;;;;;;;;;;;;;;;;;5837476;28;20054;-74
2023/08/20 16:09:39;;;;;;;2.10;1.60;;;;;;;;;;5838558;28;19933;-74
2023/08/20 16:12:40;;;;;;;2.20;1.40;;;;;;;;;;5838365;28;20922;-72
2023/08/20 16:15:30;;;;;;;1.40;1.30;;;;;;;;;;5838214;28;20072;-74
2023/08/20 16:18:28;;;;;;;2.70;1.35;;;;;;;;;;5837650;28;20050;-72
2023/08/20 16:21:19;;;;;;;8.20;1.40;;;;;;;;;;5837872;28;20181;-74
2023/08/20 16:24:16;;;;;;;12.63;2.65;;;;;;;;;;5837845;28;20050;-74
2023/08/20 16:27:07;;;;;;;1.42;1.13;;;;;;;;;;5837901;28;20065;-73
2023/08/20 16:30:06;;;;;;;2.72;1.17;;;;;;;;;;5838075;28;20049;-74
2023/08/20 16:32:56;;;;;;;2.17;1.23;;;;;;;;;;5837779;28;20403;-75
2023/08/20 16:35:54;;;;;;;1.35;1.10;;;;;;;;;;5837703;28;20050;-74
2023/08/20 16:38:45;;;;;;;3.25;1.70;;;;;;;;;;5837476;28;20041;-74
2023/08/20 16:41:42;;;;;;;2.05;1.08;;;;;;;;;;5837390;28;20057;-74
2023/08/20 16:44:33;;;;;;;4.50;1.73;;;;;;;;;;5837829;28;20091;-74
2023/08/20 16:47:30;;;;;;;4.28;2.20;;;;;;;;;;5837157;28;20061;-74
2023/08/20 16:50:22;;;;;;;1.23;0.90;;;;;;;;;;5837741;28;20124;-73
2023/08/20 16:53:19;;;;;;;3.33;1.85;;;;;;;;;;5820850;28;20397;-72
2023/08/20 16:56:10;;;;;;;1.60;1.00;;;;;;;;;;5837079;28;20060;-73
2023/08/20 16:59:08;;;;;;;2.47;1.20;;;;;;;;;;5836690;28;20049;-74
2023/08/20 17:01:59;;;;;;;1.85;1.52;;;;;;;;;;5837453;28;20579;-74
2023/08/20 17:04:56;;;;;;;2.58;1.80;;;;;;;;;;5836404;28;20390;-75
2023/08/20 17:07:47;;;;;;;2.10;1.83;;;;;;;;;;5837048;28;20042;-75
2023/08/20 17:10:44;;;;;;;1.92;1.70;;;;;;;;;;5836604;28;20046;-75
2023/08/20 17:13:36;;;;;;;4.07;2.05;;;;;;;;;;5836974;28;20397;-73
2023/08/20 17:16:36;;;;;;;2.50;1.92;;;;;;;;;;5836432;28;20140;-74
2023/08/20 17:19:31;;;;;;;;;;;;;;;;;;5803988;28;20054;-73
2023/08/20 17:22:29;;;;;;;;;;;;;;;;;;5836948;28;19921;-74
2023/08/20 17:25:20;;;;;;;;;;;;;;;;;;5836935;28;19921;-74
2023/08/20 17:28:17;;;;;;;;;;;;;;;;;;5820362;28;19929;-75
2023/08/20 17:31:08;;;;;;;;;;;;;;;;;;5836907;28;19925;-74
2023/08/20 17:34:05;;;;;;;;;;;;;;;;;;5820293;28;19921;-74
2023/08/20 17:36:56;;;;;;;;;;;;;;;;;;5837194;28;19929;-74